Georg Stage — OYKL — position and weather

sailwx.info

Track history (hours):
 
Tides and Currents Weather Stations Pressure Air Temp Water Temp Dewpoint Dewpoint Depression Visibility Wind Speed Wind Dir Waves Ship Positions

Georg Stage (Denmark)

Ship's website: http://www.georgstage.dk

Last reported at 2018-Nov-04 09:46 UTC. Time now 2018-Dec-18 11:23 UTC.
Position N 38°57' E 003°04'.
Warning: this ship's position is 44 days out of date.

Length 54 m; draft 4.2 m.

Type: Sailing vessel. MMSI: 219417000.

Date/timePositionNaut miles runAvg speedWind from/ knotsBaromVisibWave heightAir tempDewpointWater temp
2018-Nov-04 09:46N 38°57' E 003°04'5 7.5
2018-Nov-04 09:05N 38°55' E 002°59'  
2018-Oct-30 03:14N 37°58' W 000°24'1 7.2
2018-Oct-30 03:01N 37°57' W 000°24'0 7.4
2018-Oct-30 03:00N 37°56' W 000°24'7 8.1
2018-Oct-30 02:09N 37°50' W 000°25'4 8.4
2018-Oct-30 01:41N 37°46' W 000°26'1 8.5
2018-Oct-30 01:30N 37°44' W 000°26'3 7.8
2018-Oct-30 01:03N 37°41' W 000°27'0 8.1
2018-Oct-30 01:00N 37°41' W 000°27'4 7.6
2018-Oct-30 00:30N 37°37' W 000°29'3 6.9
2018-Oct-30 00:03N 37°34' W 000°31'0 7.1
2018-Oct-30 00:00N 37°34' W 000°31'3 6.3
2018-Oct-29 23:28N 37°32' W 000°34'5 6.2
2018-Oct-29 22:41N 37°30' W 000°40'1 6.3
2018-Oct-29 22:28N 37°30' W 000°42'5 6.6
2018-Oct-29 21:44N 37°30' W 000°48'2 7.3
2018-Oct-29 21:30N 37°30' W 000°50'3 7.5
2018-Oct-29 21:03N 37°31' W 000°54'0 7.7
2018-Oct-29 21:00N 37°31' W 000°55'4 7.5
2018-Oct-29 20:28N 37°31' W 000°60'  
2018-Oct-25 20:46N 36°23' W 004°48'2 1.6
2018-Oct-25 19:48N 36°23' W 004°50'1 1.8
2018-Oct-25 19:29N 36°23' W 004°51'0 0.9
2018-Oct-25 19:00N 36°22' W 004°51'2 1.3
2018-Oct-25 17:36N 36°21' W 004°53'0 0.8
2018-Oct-25 17:31N 36°21' W 004°53'0 0.7
2018-Oct-25 17:02N 36°21' W 004°53'0 0.6
2018-Oct-25 17:00N 36°21' W 004°53'0 0.7
2018-Oct-25 16:30N 36°21' W 004°53'  
Track history (hours):
 
Tides and Currents Weather Stations Pressure Air Temp Water Temp Dewpoint Dewpoint Depression Visibility Wind Speed Wind Dir Waves Ship Positions

Georg Stage (Denmark)

Ship's website: http://www.georgstage.dk

Last reported at 2018-Nov-04 09:46 UTC. Time now 2018-Dec-18 11:23 UTC.
Position N 38°57' E 003°04'.
Warning: this ship's position is 44 days out of date.

Length 54 m; draft 4.2 m.

Type: Sailing vessel. MMSI: 219417000.

Date/timePositionNaut miles runAvg speedWind from/ knotsBaromVisibWave heightAir tempDewpointWater temp
2018-Nov-04 09:46N 38°57' E 003°04'5 7.5
2018-Nov-04 09:05N 38°55' E 002°59'  
2018-Oct-30 03:14N 37°58' W 000°24'1 7.2
2018-Oct-30 03:01N 37°57' W 000°24'0 7.4
2018-Oct-30 03:00N 37°56' W 000°24'7 8.1
2018-Oct-30 02:09N 37°50' W 000°25'4 8.4
2018-Oct-30 01:41N 37°46' W 000°26'1 8.5
2018-Oct-30 01:30N 37°44' W 000°26'3 7.8
2018-Oct-30 01:03N 37°41' W 000°27'0 8.1
2018-Oct-30 01:00N 37°41' W 000°27'4 7.6
2018-Oct-30 00:30N 37°37' W 000°29'3 6.9
2018-Oct-30 00:03N 37°34' W 000°31'0 7.1
2018-Oct-30 00:00N 37°34' W 000°31'3 6.3
2018-Oct-29 23:28N 37°32' W 000°34'5 6.2
2018-Oct-29 22:41N 37°30' W 000°40'1 6.3
2018-Oct-29 22:28N 37°30' W 000°42'5 6.6
2018-Oct-29 21:44N 37°30' W 000°48'2 7.3
2018-Oct-29 21:30N 37°30' W 000°50'3 7.5
2018-Oct-29 21:03N 37°31' W 000°54'0 7.7
2018-Oct-29 21:00N 37°31' W 000°55'4 7.5
2018-Oct-29 20:28N 37°31' W 000°60'  
2018-Oct-25 20:46N 36°23' W 004°48'2 1.6
2018-Oct-25 19:48N 36°23' W 004°50'1 1.8
2018-Oct-25 19:29N 36°23' W 004°51'0 0.9
2018-Oct-25 19:00N 36°22' W 004°51'2 1.3
2018-Oct-25 17:36N 36°21' W 004°53'0 0.8
2018-Oct-25 17:31N 36°21' W 004°53'0 0.7
2018-Oct-25 17:02N 36°21' W 004°53'0 0.6
2018-Oct-25 17:00N 36°21' W 004°53'0 0.7
2018-Oct-25 16:30N 36°21' W 004°53'  

Dump ship's entire track history